Time;durP1;ratioP1;P1;durP2;ratioP2;P2;SDS_P1;SDS_P2;PMS_P1;PMS_P2;Temp;Humidity;BMP_temperature;BMP_pressure;BME280_temperature;BME280_humidity;BME280_pressure;Samples;Min_cycle;Max_cycle;Signal;HPM_P1;HPM_P2
2022/12/07 00:02:03;;;;;;;74.88;21.27;;;;;;;;;;10318460;28;20048;-63
2022/12/07 00:07:02;;;;;;;35.78;15.93;;;;;;;;;;10319117;28;20087;-63
2022/12/07 00:12:00;;;;;;;136.57;30.10;;;;;;;;;;10319147;28;20080;-63
2022/12/07 00:16:59;;;;;;;67.85;29.80;;;;;;;;;;10319293;28;20049;-62
2022/12/07 00:21:58;;;;;;;74.32;30.90;;;;;;;;;;10320047;28;20045;-63
2022/12/07 00:26:56;;;;;;;57.17;21.38;;;;;;;;;;10319415;28;20045;-63
2022/12/07 00:31:55;;;;;;;39.45;24.77;;;;;;;;;;10317657;28;20087;-63
2022/12/07 00:36:53;;;;;;;63.35;17.50;;;;;;;;;;10319412;28;20493;-63
2022/12/07 00:41:52;;;;;;;34.83;19.60;;;;;;;;;;10319387;28;20068;-63
2022/12/07 00:46:51;;;;;;;66.63;21.35;;;;;;;;;;10317547;28;20059;-63
2022/12/07 00:51:49;;;;;;;73.35;21.23;;;;;;;;;;10318023;28;20087;-63
2022/12/07 00:56:47;;;;;;;47.72;19.52;;;;;;;;;;10317509;28;20068;-63
2022/12/07 01:01:47;;;;;;;89.85;25.67;;;;;;;;;;10318051;28;20059;-64
2022/12/07 01:06:46;;;;;;;30.92;16.65;;;;;;;;;;10317214;28;20083;-63
2022/12/07 01:11:44;;;;;;;32.90;16.90;;;;;;;;;;10349895;28;20051;-63
2022/12/07 01:16:42;;;;;;;25.35;16.33;;;;;;;;;;10317697;28;20055;-63
2022/12/07 01:21:42;;;;;;;24.27;14.98;;;;;;;;;;10317748;28;20040;-64
2022/12/07 01:26:40;;;;;;;36.50;21.95;;;;;;;;;;10316554;28;20048;-64
2022/12/07 01:31:39;;;;;;;23.45;15.10;;;;;;;;;;10316887;28;20095;-64
2022/12/07 01:36:37;;;;;;;31.13;18.65;;;;;;;;;;10316392;28;20041;-64
2022/12/07 01:41:39;;;;;;;26.83;16.05;;;;;;;;;;10316063;28;20059;-64
2022/12/07 01:46:37;;;;;;;28.45;15.77;;;;;;;;;;10315860;28;20049;-64
2022/12/07 01:51:35;;;;;;;24.20;14.75;;;;;;;;;;10316519;28;20064;-64
2022/12/07 01:56:34;;;;;;;23.25;15.05;;;;;;;;;;10316285;28;20530;-64
2022/12/07 02:01:33;;;;;;;29.20;16.17;;;;;;;;;;10316061;28;20083;-63
2022/12/07 02:06:32;;;;;;;25.88;15.85;;;;;;;;;;10315636;28;20090;-63
2022/12/07 02:11:30;;;;;;;77.68;29.67;;;;;;;;;;10315646;28;20127;-64
2022/12/07 02:16:32;;;;;;;33.60;20.02;;;;;;;;;;10315955;28;20052;-65
2022/12/07 02:21:35;;;;;;;124.60;23.40;;;;;;;;;;10315357;28;20048;-64
2022/12/07 02:26:52;;;;;;;50.92;24.30;;;;;;;;;;10315265;28;20041;-63
2022/12/07 02:31:56;;;;;;;40.58;21.77;;;;;;;;;;10315128;28;20174;-63
2022/12/07 02:36:56;;;;;;;108.17;35.20;;;;;;;;;;10315177;28;20190;-64
2022/12/07 02:41:56;;;;;;;147.13;34.60;;;;;;;;;;10315081;28;20048;-64
2022/12/07 02:46:59;;;;;;;156.00;50.20;;;;;;;;;;10315056;28;20476;-63
2022/12/07 02:51:57;;;;;;;93.63;25.27;;;;;;;;;;10315012;28;20087;-63
2022/12/07 02:56:59;;;;;;;39.13;21.20;;;;;;;;;;10319152;28;20048;-64
2022/12/07 03:02:05;;;;;;;184.38;49.88;;;;;;;;;;10322098;28;20040;-64
2022/12/07 03:07:06;;;;;;;154.18;43.85;;;;;;;;;;10321872;28;20498;-63
2022/12/07 03:12:08;;;;;;;121.10;33.15;;;;;;;;;;10320639;28;20540;-64
2022/12/07 03:17:09;;;;;;;162.43;28.25;;;;;;;;;;10321644;28;20083;-64
2022/12/07 03:22:09;;;;;;;235.27;31.83;;;;;;;;;;10321490;28;20080;-63
2022/12/07 03:27:10;;;;;;;259.90;91.30;;;;;;;;;;10320923;28;20421;-64
2022/12/07 03:32:12;;;;;;;190.70;31.48;;;;;;;;;;10321043;28;20079;-64
2022/12/07 03:37:13;;;;;;;212.65;36.22;;;;;;;;;;10320881;28;20514;-65
2022/12/07 03:42:12;;;;;;;170.63;34.72;;;;;;;;;;10320593;28;20053;-64
2022/12/07 03:47:13;;;;;;;117.80;31.38;;;;;;;;;;10320449;28;20071;-63
2022/12/07 03:52:15;;;;;;;105.85;21.58;;;;;;;;;;10320346;28;20080;-63
2022/12/07 03:57:13;;;;;;;83.25;27.67;;;;;;;;;;10319667;28;20099;-63
2022/12/07 04:02:14;;;;;;;54.72;26.90;;;;;;;;;;10319856;28;20048;-64
2022/12/07 04:07:12;;;;;;;63.33;33.80;;;;;;;;;;10319627;28;20095;-65
2022/12/07 04:12:11;;;;;;;55.30;30.10;;;;;;;;;;10319025;28;20083;-65
2022/12/07 04:17:09;;;;;;;66.63;36.03;;;;;;;;;;10318740;28;20060;-65
2022/12/07 04:22:09;;;;;;;96.07;44.17;;;;;;;;;;10318878;28;20044;-64
2022/12/07 04:27:07;;;;;;;52.85;27.98;;;;;;;;;;10317897;28;20057;-64
2022/12/07 04:32:05;;;;;;;46.55;26.55;;;;;;;;;;10318520;28;20072;-63
2022/12/07 04:37:03;;;;;;;46.80;29.67;;;;;;;;;;10317949;28;20043;-62
2022/12/07 04:42:03;;;;;;;59.95;32.38;;;;;;;;;;10318135;28;20068;-63
2022/12/07 04:47:01;;;;;;;52.15;29.80;;;;;;;;;;10317388;28;20060;-64
2022/12/07 04:52:00;;;;;;;37.70;24.50;;;;;;;;;;10317473;28;20073;-65
2022/12/07 04:56:59;;;;;;;46.53;30.63;;;;;;;;;;10319460;28;20394;-64
2022/12/07 05:01:58;;;;;;;48.30;28.90;;;;;;;;;;10317348;28;20084;-63
2022/12/07 05:06:57;;;;;;;46.50;30.30;;;;;;;;;;10316940;28;20040;-63
2022/12/07 05:11:55;;;;;;;56.30;35.67;;;;;;;;;;10316763;28;20084;-63
2022/12/07 05:16:53;;;;;;;42.97;27.08;;;;;;;;;;10315945;28;20076;-63
2022/12/07 05:21:53;;;;;;;42.85;27.60;;;;;;;;;;10316903;28;20045;-65
2022/12/07 05:26:51;;;;;;;47.70;29.77;;;;;;;;;;10316516;28;20048;-64
2022/12/07 05:31:49;;;;;;;55.92;38.95;;;;;;;;;;10314661;28;20545;-64
2022/12/07 05:36:48;;;;;;;64.43;38.13;;;;;;;;;;10314899;28;20413;-64
2022/12/07 05:47:03;;;;;;;79.18;40.67;;;;;;;;;;10312701;28;20072;-66
2022/12/07 05:52:01;;;;;;;65.72;37.08;;;;;;;;;;10313093;28;20072;-64
2022/12/07 05:57:01;;;;;;;69.68;45.05;;;;;;;;;;10310646;28;20086;-64
2022/12/07 06:01:59;;;;;;;47.20;29.45;;;;;;;;;;10312381;28;20079;-65
2022/12/07 06:06:58;;;;;;;49.17;33.10;;;;;;;;;;10314942;28;20071;-64
2022/12/07 06:17:14;;;;;;;48.67;32.90;;;;;;;;;;10315093;28;20464;-64
2022/12/07 06:22:13;;;;;;;55.42;35.63;;;;;;;;;;10312886;28;20073;-64
2022/12/07 06:27:11;;;;;;;50.45;35.80;;;;;;;;;;10315325;28;20047;-65
2022/12/07 06:32:09;;;;;;;50.88;31.42;;;;;;;;;;10321712;28;20080;-64
2022/12/07 06:37:09;;;;;;;52.80;31.88;;;;;;;;;;10323940;28;20044;-64
2022/12/07 06:42:07;;;;;;;54.00;32.03;;;;;;;;;;10323220;28;20055;-64
2022/12/07 06:47:07;;;;;;;52.25;34.25;;;;;;;;;;10322131;28;20055;-63
2022/12/07 06:52:27;;;;;;;65.63;39.83;;;;;;;;;;10322491;28;20126;-64
2022/12/07 06:57:25;;;;;;;44.42;28.13;;;;;;;;;;10322747;28;20060;-64
2022/12/07 07:02:23;;;;;;;38.03;27.48;;;;;;;;;;10322146;28;20076;-65
2022/12/07 07:07:21;;;;;;;38.90;28.77;;;;;;;;;;10321893;28;20036;-65
2022/12/07 07:12:21;;;;;;;36.63;26.45;;;;;;;;;;10320951;28;20068;-65
2022/12/07 07:17:19;;;;;;;50.70;33.22;;;;;;;;;;10321392;28;20064;-63
2022/12/07 07:22:17;;;;;;;43.17;29.60;;;;;;;;;;10319797;28;20115;-62
2022/12/07 07:27:15;;;;;;;46.45;29.90;;;;;;;;;;10321128;28;20044;-64
2022/12/07 07:32:15;;;;;;;52.95;35.30;;;;;;;;;;10321927;28;20083;-64
2022/12/07 07:37:13;;;;;;;55.15;34.22;;;;;;;;;;10321150;28;20072;-65
2022/12/07 07:42:18;;;;;;;52.38;35.67;;;;;;;;;;10320482;28;20068;-65
2022/12/07 07:47:18;;;;;;;24.52;17.95;;;;;;;;;;10314489;28;20064;-63
2022/12/07 07:52:16;;;;;;;52.67;36.30;;;;;;;;;;10315886;28;20092;-64
2022/12/07 07:57:14;;;;;;;32.67;23.58;;;;;;;;;;10318510;28;20048;-65
2022/12/07 08:02:14;;;;;;;24.98;18.40;;;;;;;;;;10319172;28;20056;-65
2022/12/07 08:07:14;;;;;;;31.58;21.98;;;;;;;;;;10315644;28;20053;-64
2022/12/07 08:12:12;;;;;;;42.28;27.98;;;;;;;;;;10316477;28;20072;-63
2022/12/07 08:17:12;;;;;;;50.33;36.30;;;;;;;;;;10318942;28;20099;-65
2022/12/07 08:22:10;;;;;;;49.03;33.47;;;;;;;;;;10317988;28;20047;-65
2022/12/07 08:27:10;;;;;;;32.63;22.85;;;;;;;;;;10315033;28;20626;-65
2022/12/07 08:32:08;;;;;;;27.42;18.90;;;;;;;;;;10304557;28;20417;-64
2022/12/07 08:37:07;;;;;;;113.68;73.80;;;;;;;;;;10311061;28;20504;-64
2022/12/07 08:42:05;;;;;;;39.83;26.88;;;;;;;;;;10315568;28;20425;-63
2022/12/07 08:47:06;;;;;;;37.60;28.83;;;;;;;;;;10315835;28;20099;-64
2022/12/07 08:52:05;;;;;;;30.38;23.45;;;;;;;;;;10313935;28;20102;-64
2022/12/07 08:57:04;;;;;;;38.00;26.23;;;;;;;;;;10316989;28;20088;-64
2022/12/07 09:02:02;;;;;;;19.35;15.55;;;;;;;;;;10317051;28;20107;-63
2022/12/07 09:07:02;;;;;;;16.80;12.02;;;;;;;;;;10315127;28;20082;-64
2022/12/07 09:12:00;;;;;;;20.77;14.98;;;;;;;;;;10316400;28;20460;-64
2022/12/07 09:17:05;;;;;;;18.77;13.15;;;;;;;;;;10317146;28;20072;-64
2022/12/07 09:22:05;;;;;;;18.23;14.70;;;;;;;;;;10317518;28;20083;-63
2022/12/07 09:27:04;;;;;;;14.95;12.43;;;;;;;;;;10316581;28;20051;-64
2022/12/07 09:32:02;;;;;;;21.35;19.05;;;;;;;;;;10315768;28;20049;-64
2022/12/07 09:37:09;;;;;;;17.88;14.55;;;;;;;;;;10316888;28;20068;-64
2022/12/07 09:42:08;;;;;;;22.80;19.13;;;;;;;;;;10316671;28;20117;-63
2022/12/07 09:47:06;;;;;;;23.92;19.45;;;;;;;;;;10316017;28;20086;-63
2022/12/07 09:52:18;;;;;;;18.33;15.50;;;;;;;;;;10315964;28;20041;-63
2022/12/07 09:57:18;;;;;;;18.25;14.75;;;;;;;;;;10316127;28;20114;-65
2022/12/07 10:02:24;;;;;;;27.15;19.08;;;;;;;;;;10315839;28;20037;-62
2022/12/07 10:07:23;;;;;;;18.38;15.13;;;;;;;;;;10323938;28;20485;-63
2022/12/07 10:12:22;;;;;;;21.75;17.70;;;;;;;;;;10324848;28;20064;-63
2022/12/07 10:17:31;;;;;;;41.67;26.05;;;;;;;;;;10323528;28;20630;-62
2022/12/07 10:22:29;;;;;;;25.90;21.25;;;;;;;;;;10323525;28;20425;-64
2022/12/07 10:27:32;;;;;;;20.33;17.73;;;;;;;;;;10323586;28;20045;-62
2022/12/07 10:32:33;;;;;;;22.92;16.50;;;;;;;;;;10323291;28;20075;-64
2022/12/07 10:37:40;;;;;;;26.10;20.98;;;;;;;;;;10323199;28;20076;-64
2022/12/07 10:42:40;;;;;;;46.67;30.15;;;;;;;;;;10323050;28;20048;-63
2022/12/07 10:47:40;;;;;;;21.10;18.80;;;;;;;;;;10355235;28;20052;-63
2022/12/07 10:52:49;;;;;;;24.65;19.45;;;;;;;;;;10322989;28;20078;-64
2022/12/07 10:57:54;;;;;;;28.63;22.13;;;;;;;;;;10322593;28;20082;-64
2022/12/07 11:03:14;;;;;;;24.05;19.55;;;;;;;;;;10322477;28;20037;-63
2022/12/07 11:08:19;;;;;;;28.02;21.90;;;;;;;;;;10322753;28;20095;-62
2022/12/07 11:13:24;;;;;;;24.03;19.93;;;;;;;;;;10322141;28;20075;-64
2022/12/07 11:18:28;;;;;;;23.02;18.15;;;;;;;;;;10321736;28;20787;-64
2022/12/07 11:23:32;;;;;;;31.02;22.52;;;;;;;;;;10322105;28;20071;-64
2022/12/07 11:28:38;;;;;;;19.23;14.43;;;;;;;;;;10321658;28;20075;-63
2022/12/07 11:33:39;;;;;;;20.80;16.90;;;;;;;;;;10353848;28;20057;-62
2022/12/07 11:38:42;;;;;;;29.88;21.05;;;;;;;;;;10320857;28;20048;-63
2022/12/07 11:43:50;;;;;;;63.28;44.03;;;;;;;;;;10321151;28;20043;-64
2022/12/07 11:48:53;;;;;;;43.95;35.92;;;;;;;;;;10319961;28;20080;-64
2022/12/07 11:53:53;;;;;;;30.30;24.30;;;;;;;;;;10320070;28;20032;-65
2022/12/07 11:58:55;;;;;;;26.08;20.42;;;;;;;;;;10320507;28;20032;-64
2022/12/07 12:03:57;;;;;;;23.25;19.48;;;;;;;;;;10320401;28;20072;-64
2022/12/07 12:08:57;;;;;;;31.50;23.55;;;;;;;;;;10320233;28;20044;-63
2022/12/07 12:14:31;;;;;;;30.02;23.20;;;;;;;;;;10319109;28;20080;-64
2022/12/07 12:19:34;;;;;;;28.02;21.75;;;;;;;;;;10320377;28;20080;-64
2022/12/07 12:24:36;;;;;;;23.38;18.58;;;;;;;;;;10319560;28;20056;-63
2022/12/07 12:29:37;;;;;;;24.60;19.92;;;;;;;;;;10318015;28;20052;-64
2022/12/07 12:34:40;;;;;;;28.48;21.58;;;;;;;;;;10319206;28;20434;-63
2022/12/07 12:40:21;;;;;;;29.50;23.20;;;;;;;;;;10319724;28;20083;-63
2022/12/07 12:45:22;;;;;;;31.88;24.85;;;;;;;;;;10317756;28;20041;-63
2022/12/07 12:50:21;;;;;;;41.38;28.83;;;;;;;;;;10318071;28;20506;-65
2022/12/07 12:55:21;;;;;;;28.48;23.17;;;;;;;;;;10318379;28;20088;-64
2022/12/07 13:00:22;;;;;;;45.28;32.83;;;;;;;;;;10318457;28;20051;-63
2022/12/07 13:05:21;;;;;;;37.20;26.35;;;;;;;;;;10318091;28;20045;-64
2022/12/07 13:10:28;;;;;;;39.15;30.77;;;;;;;;;;10318681;28;20056;-64
2022/12/07 13:15:34;;;;;;;28.33;23.25;;;;;;;;;;10318033;28;20076;-64
2022/12/07 13:20:47;;;;;;;47.85;34.45;;;;;;;;;;10317245;28;20497;-64
2022/12/07 13:26:04;;;;;;;34.85;26.95;;;;;;;;;;10316626;28;20033;-64
2022/12/07 13:31:11;;;;;;;42.28;33.10;;;;;;;;;;10317415;28;20048;-64
2022/12/07 13:36:15;;;;;;;41.90;32.38;;;;;;;;;;10316162;28;20088;-64
2022/12/07 13:41:15;;;;;;;64.40;44.88;;;;;;;;;;10316037;28;20469;-63
2022/12/07 13:46:17;;;;;;;34.38;27.35;;;;;;;;;;10316576;28;20071;-63
2022/12/07 13:51:18;;;;;;;33.60;26.67;;;;;;;;;;10315898;28;20044;-63
2022/12/07 13:56:17;;;;;;;54.78;38.42;;;;;;;;;;10316632;28;20157;-63
2022/12/07 14:01:16;;;;;;;79.45;64.63;;;;;;;;;;10316582;28;20431;-64
2022/12/07 14:06:17;;;;;;;45.42;31.73;;;;;;;;;;10316929;28;20068;-63
2022/12/07 14:11:17;;;;;;;38.72;29.45;;;;;;;;;;10315951;28;20048;-63
2022/12/07 14:16:23;;;;;;;47.97;37.03;;;;;;;;;;10315513;28;20083;-63
2022/12/07 14:21:23;;;;;;;51.28;38.30;;;;;;;;;;10316568;28;20095;-63
2022/12/07 14:26:22;;;;;;;63.42;42.85;;;;;;;;;;10315395;28;20072;-64
2022/12/07 14:31:24;;;;;;;45.85;35.10;;;;;;;;;;10316317;28;20049;-64
2022/12/07 14:36:28;;;;;;;52.15;39.47;;;;;;;;;;10315057;28;20076;-65
2022/12/07 14:46:45;;;;;;;49.47;39.40;;;;;;;;;;10309671;28;20072;-63
2022/12/07 14:51:45;;;;;;;74.50;56.22;;;;;;;;;;10317925;28;20040;-64
2022/12/07 14:57:03;;;;;;;63.13;43.30;;;;;;;;;;10322970;28;20090;-64
2022/12/07 15:02:03;;;;;;;83.13;60.65;;;;;;;;;;10322351;28;20051;-65
2022/12/07 15:07:02;;;;;;;70.05;52.40;;;;;;;;;;10322159;28;20045;-64
2022/12/07 15:12:00;;;;;;;48.40;37.13;;;;;;;;;;10321504;28;20464;-65
2022/12/07 15:16:59;;;;;;;53.40;38.65;;;;;;;;;;10321793;28;20120;-64
2022/12/07 15:22:10;;;;;;;55.20;37.45;;;;;;;;;;10319029;28;20064;-64
2022/12/07 15:27:08;;;;;;;47.72;34.53;;;;;;;;;;10316548;28;20075;-64
2022/12/07 15:32:07;;;;;;;55.85;39.03;;;;;;;;;;10319507;28;20448;-64
2022/12/07 15:37:05;;;;;;;63.65;45.35;;;;;;;;;;10319411;28;20824;-64
2022/12/07 15:42:06;;;;;;;101.32;80.95;;;;;;;;;;10319202;28;20061;-64
2022/12/07 15:47:04;;;;;;;68.63;47.97;;;;;;;;;;10319049;28;20049;-65
2022/12/07 15:52:03;;;;;;;71.07;54.58;;;;;;;;;;10317995;28;20079;-64
2022/12/07 15:57:01;;;;;;;66.13;50.10;;;;;;;;;;10318808;28;20675;-64
2022/12/07 16:02:01;;;;;;;75.63;54.65;;;;;;;;;;10319791;28;20386;-64
2022/12/07 16:06:59;;;;;;;65.97;48.17;;;;;;;;;;10317679;28;20044;-63
2022/12/07 16:11:57;;;;;;;58.80;43.13;;;;;;;;;;10318056;28;20041;-64
2022/12/07 16:16:55;;;;;;;60.97;44.08;;;;;;;;;;10315896;28;20068;-65
2022/12/07 16:21:55;;;;;;;65.20;46.10;;;;;;;;;;10317073;28;20083;-64
2022/12/07 16:26:53;;;;;;;50.20;38.22;;;;;;;;;;10317728;28;20048;-64
2022/12/07 16:31:52;;;;;;;51.08;36.65;;;;;;;;;;10316086;28;20060;-65
2022/12/07 16:36:50;;;;;;;55.05;36.22;;;;;;;;;;10318391;28;20067;-65
2022/12/07 16:42:05;;;;;;;51.60;34.92;;;;;;;;;;10305864;28;20411;-66
2022/12/07 16:47:03;;;;;;;51.30;33.92;;;;;;;;;;10298873;28;20085;-65
2022/12/07 16:52:02;;;;;;;57.00;39.85;;;;;;;;;;10292877;28;20146;-65
2022/12/07 16:57:21;;;;;;;60.00;38.90;;;;;;;;;;10305959;28;20088;-65
2022/12/07 17:02:21;;;;;;;57.50;38.22;;;;;;;;;;10304430;28;20064;-65
2022/12/07 17:07:19;;;;;;;61.38;41.33;;;;;;;;;;10300780;28;20072;-64
2022/12/07 17:12:18;;;;;;;54.33;33.55;;;;;;;;;;10291609;28;20073;-65
2022/12/07 17:17:18;;;;;;;82.95;36.78;;;;;;;;;;10291587;28;20144;-66
2022/12/07 17:22:16;;;;;;;72.07;37.85;;;;;;;;;;10293101;28;20067;-65
2022/12/07 17:27:14;;;;;;;75.82;35.33;;;;;;;;;;10299970;28;20068;-65
2022/12/07 17:32:12;;;;;;;63.05;34.78;;;;;;;;;;10289403;28;20088;-65
2022/12/07 17:37:12;;;;;;;67.72;39.17;;;;;;;;;;10301923;28;20083;-65
2022/12/07 17:47:26;;;;;;;;;;;;;;;;;;10303898;28;20095;-66
2022/12/07 17:57:41;;;;;;;71.60;42.63;;;;;;;;;;10309404;28;20072;-66
2022/12/07 18:02:39;;;;;;;108.70;55.40;;;;;;;;;;10304848;28;20065;-65
2022/12/07 18:07:39;;;;;;;84.85;40.63;;;;;;;;;;10305528;28;20068;-66
2022/12/07 18:12:39;;;;;;;97.22;49.45;;;;;;;;;;10311360;28;20071;-65
2022/12/07 18:17:37;;;;;;;102.97;33.75;;;;;;;;;;10299677;28;20080;-65
2022/12/07 18:22:36;;;;;;;147.75;53.00;;;;;;;;;;10297628;28;20072;-65
2022/12/07 18:27:36;;;;;;;124.32;48.80;;;;;;;;;;10299734;28;20076;-65
2022/12/07 18:32:34;;;;;;;142.68;46.35;;;;;;;;;;10303745;28;20098;-66
2022/12/07 18:37:32;;;;;;;191.40;77.88;;;;;;;;;;10301483;28;20087;-65
2022/12/07 18:42:31;;;;;;;199.88;80.90;;;;;;;;;;10304261;28;20087;-64
2022/12/07 18:47:30;;;;;;;170.15;55.70;;;;;;;;;;10304183;28;20079;-65
2022/12/07 18:52:29;;;;;;;195.32;61.05;;;;;;;;;;10303381;28;20068;-63
2022/12/07 18:57:28;;;;;;;192.13;56.97;;;;;;;;;;10305345;28;20076;-65
2022/12/07 19:02:26;;;;;;;210.82;36.13;;;;;;;;;;10310162;28;20056;-65
2022/12/07 19:07:26;;;;;;;137.98;34.47;;;;;;;;;;10306939;28;20068;-65
2022/12/07 19:12:24;;;;;;;164.00;36.35;;;;;;;;;;10305219;28;20068;-65
2022/12/07 19:17:22;;;;;;;122.20;45.38;;;;;;;;;;10301935;28;20102;-65
2022/12/07 19:22:21;;;;;;;165.75;36.67;;;;;;;;;;10311628;28;20075;-64
2022/12/07 19:27:22;;;;;;;145.85;48.35;;;;;;;;;;10316234;28;20606;-64
2022/12/07 19:32:20;;;;;;;127.13;34.60;;;;;;;;;;10312285;28;20056;-64
2022/12/07 19:37:19;;;;;;;186.13;38.30;;;;;;;;;;10312716;28;20091;-65
2022/12/07 19:42:17;;;;;;;206.23;44.00;;;;;;;;;;10302215;28;20072;-64
2022/12/07 19:47:18;;;;;;;100.95;35.40;;;;;;;;;;10313275;28;20202;-65
2022/12/07 19:52:16;;;;;;;190.00;37.35;;;;;;;;;;10305694;28;20072;-64
2022/12/07 19:57:16;;;;;;;153.43;34.05;;;;;;;;;;10303496;28;20082;-65
2022/12/07 20:02:15;;;;;;;67.25;30.33;;;;;;;;;;10314411;28;20087;-65
2022/12/07 20:07:14;;;;;;;64.82;26.02;;;;;;;;;;10300470;28;20083;-64
2022/12/07 20:17:29;;;;;;;87.78;33.42;;;;;;;;;;10305690;28;20072;-64
2022/12/07 20:22:29;;;;;;;89.88;43.63;;;;;;;;;;10309217;28;20068;-65
2022/12/07 20:27:27;;;;;;;76.32;36.95;;;;;;;;;;10311080;28;20095;-65
2022/12/07 20:32:25;;;;;;;62.15;35.72;;;;;;;;;;10302710;28;20071;-65
2022/12/07 20:37:23;;;;;;;79.65;43.22;;;;;;;;;;10302331;28;20123;-64
2022/12/07 20:42:38;;;;;;;71.15;36.20;;;;;;;;;;10309678;28;20068;-64
2022/12/07 20:47:36;;;;;;;127.05;79.15;;;;;;;;;;10311340;28;20076;-65
2022/12/07 20:52:35;;;;;;;107.57;46.92;;;;;;;;;;10299627;28;20064;-66
2022/12/07 20:57:34;;;;;;;75.70;37.20;;;;;;;;;;10296715;28;20092;-65
2022/12/07 21:02:32;;;;;;;114.88;47.05;;;;;;;;;;10297853;28;20505;-64
2022/12/07 21:07:31;;;;;;;55.88;26.38;;;;;;;;;;10296775;28;20080;-65
2022/12/07 21:12:29;;;;;;;53.55;30.00;;;;;;;;;;10295360;28;20065;-64
2022/12/07 21:17:29;;;;;;;132.90;54.60;;;;;;;;;;10295538;28;20076;-65
2022/12/07 21:22:27;;;;;;;183.57;78.05;;;;;;;;;;10298722;28;20512;-65
2022/12/07 21:27:25;;;;;;;105.53;45.95;;;;;;;;;;10298191;28;20076;-64
2022/12/07 21:32:23;;;;;;;66.13;32.65;;;;;;;;;;10303217;28;20060;-64
2022/12/07 21:37:23;;;;;;;220.90;67.13;;;;;;;;;;10300543;28;20084;-64
2022/12/07 21:42:21;;;;;;;55.10;32.25;;;;;;;;;;10295290;28;20064;-64
2022/12/07 21:47:19;;;;;;;158.15;48.03;;;;;;;;;;10292774;28;20127;-64
2022/12/07 21:52:17;;;;;;;88.40;39.63;;;;;;;;;;10305555;28;20080;-64
2022/12/07 21:57:17;;;;;;;141.02;32.63;;;;;;;;;;10298160;28;20705;-64
2022/12/07 22:02:15;;;;;;;182.48;48.10;;;;;;;;;;10298604;28;20071;-64
2022/12/07 22:07:14;;;;;;;77.80;25.70;;;;;;;;;;10299199;28;20079;-64
2022/12/07 22:12:12;;;;;;;126.43;32.13;;;;;;;;;;10298256;28;20083;-63
2022/12/07 22:17:12;;;;;;;194.32;27.98;;;;;;;;;;10302860;28;20083;-64
2022/12/07 22:22:13;;;;;;;150.25;36.17;;;;;;;;;;10290084;28;20084;-66
2022/12/07 22:27:11;;;;;;;160.93;43.33;;;;;;;;;;10298477;28;20049;-65
2022/12/07 22:32:10;;;;;;;230.18;43.85;;;;;;;;;;10290992;28;20124;-63
2022/12/07 22:37:30;;;;;;;206.30;44.35;;;;;;;;;;10290721;28;21153;-65
2022/12/07 22:42:28;;;;;;;255.15;50.45;;;;;;;;;;10292766;28;20068;-64
2022/12/07 22:47:26;;;;;;;236.18;55.55;;;;;;;;;;10296409;28;20076;-63
2022/12/07 22:52:24;;;;;;;182.77;42.60;;;;;;;;;;10290380;28;20076;-65
2022/12/07 22:57:24;;;;;;;215.80;41.88;;;;;;;;;;10296568;28;20531;-64
2022/12/07 23:02:22;;;;;;;190.73;44.15;;;;;;;;;;10294682;28;20071;-64
2022/12/07 23:07:21;;;;;;;209.77;40.30;;;;;;;;;;10295264;28;20269;-63
2022/12/07 23:17:36;;;;;;;337.45;74.97;;;;;;;;;;10318262;28;20060;-64
2022/12/07 23:22:34;;;;;;;273.73;52.10;;;;;;;;;;10300439;28;20072;-62
2022/12/07 23:27:33;;;;;;;543.05;87.60;;;;;;;;;;10298846;28;20079;-65
2022/12/07 23:32:32;;;;;;;143.55;34.00;;;;;;;;;;10284348;28;20082;-65
2022/12/07 23:37:31;;;;;;;165.68;38.92;;;;;;;;;;10297129;28;20072;-66
2022/12/07 23:42:30;;;;;;;266.50;48.50;;;;;;;;;;10282765;28;20075;-64
2022/12/07 23:47:28;;;;;;;310.60;36.15;;;;;;;;;;10297731;28;20080;-66
2022/12/07 23:52:26;;;;;;;313.88;66.38;;;;;;;;;;10298145;28;20068;-65
2022/12/07 23:57:26;;;;;;;189.23;44.17;;;;;;;;;;10296278;28;20445;-65
